createdAt,value
2022-11-15T00:01:18.001Z,7.10
2022-11-15T00:04:06.599Z,7.10
2022-11-15T00:06:55.815Z,7.10
2022-11-15T00:09:45.844Z,7.15
2022-11-15T00:12:31.309Z,7.26
2022-11-15T00:15:16.722Z,7.32
2022-11-15T00:18:02.026Z,7.34
2022-11-15T00:20:53.843Z,7.37
2022-11-15T00:23:40.324Z,7.40
2022-11-15T00:26:32.932Z,7.44
2022-11-15T00:29:18.381Z,7.48
2022-11-15T00:32:03.712Z,7.51
2022-11-15T00:34:49.063Z,7.52
2022-11-15T00:37:34.578Z,7.51
2022-11-15T00:40:19.791Z,7.51
2022-11-15T00:43:05.571Z,7.53
2022-11-15T00:45:50.897Z,7.53
2022-11-15T00:48:36.106Z,7.53
2022-11-15T00:51:21.366Z,7.56
2022-11-15T00:54:06.970Z,7.57
2022-11-15T00:56:52.093Z,7.58
2022-11-15T00:59:37.460Z,7.54
2022-11-15T01:02:23.151Z,7.52
2022-11-15T01:05:09.436Z,7.48
2022-11-15T01:07:57.295Z,7.45
2022-11-15T01:10:42.944Z,7.43
2022-11-15T01:13:31.676Z,7.38
2022-11-15T01:16:19.627Z,7.35
2022-11-15T01:19:04.839Z,7.33
2022-11-15T01:21:51.222Z,7.34
2022-11-15T01:24:36.916Z,7.35
2022-11-15T01:27:22.578Z,7.37
2022-11-15T01:30:09.292Z,7.33
2022-11-15T01:32:54.736Z,7.34
2022-11-15T01:35:41.180Z,7.30
2022-11-15T01:38:26.650Z,7.25
2022-11-15T01:41:25.048Z,7.25
2022-11-15T01:44:32.343Z,7.21
2022-11-15T01:47:26.036Z,7.16
2022-11-15T01:50:15.499Z,7.16
2022-11-15T01:53:00.752Z,7.14
2022-11-15T01:55:46.271Z,7.13
2022-11-15T01:58:31.564Z,7.11
2022-11-15T02:01:16.886Z,7.01
2022-11-15T02:04:08.998Z,6.88
2022-11-15T02:06:54.909Z,6.83
2022-11-15T02:09:41.083Z,6.81
2022-11-15T02:12:26.306Z,6.81
2022-11-15T02:15:12.712Z,6.81
2022-11-15T02:18:21.767Z,6.78
2022-11-15T02:21:40.601Z,6.78
2022-11-15T02:24:51.488Z,6.79
2022-11-15T02:27:48.801Z,6.75
2022-11-15T02:30:55.216Z,6.69
2022-11-15T02:34:08.774Z,6.68
2022-11-15T02:37:27.245Z,6.67
2022-11-15T02:40:18.441Z,6.65
2022-11-15T02:43:35.593Z,6.64
2022-11-15T02:47:13.118Z,6.62
2022-11-15T02:50:02.037Z,6.60
2022-11-15T02:52:49.673Z,6.60
2022-11-15T02:55:39.791Z,6.60
2022-11-15T02:58:27.647Z,6.63
2022-11-15T03:01:13.119Z,6.62
2022-11-15T03:04:11.013Z,6.64
2022-11-15T03:07:12.226Z,6.65
2022-11-15T03:09:57.841Z,6.64
2022-11-15T03:12:55.335Z,6.65
2022-11-15T03:15:54.745Z,6.64
2022-11-15T03:18:43.705Z,6.65
2022-11-15T03:21:31.477Z,6.66
2022-11-15T03:24:25.626Z,6.70
2022-11-15T03:27:16.749Z,6.70
2022-11-15T03:30:07.439Z,6.72
2022-11-15T03:32:57.562Z,6.78
2022-11-15T03:35:46.085Z,6.79
2022-11-15T03:38:33.140Z,6.80
2022-11-15T03:41:28.233Z,6.82
2022-11-15T03:44:41.494Z,6.82
2022-11-15T03:47:37.586Z,6.83
2022-11-15T03:50:25.179Z,6.86
2022-11-15T03:53:11.080Z,6.88
2022-11-15T03:55:56.481Z,6.91
2022-11-15T03:58:41.615Z,6.95
2022-11-15T04:01:26.981Z,6.97
2022-11-15T04:04:12.491Z,7.03
2022-11-15T04:06:57.862Z,7.06
2022-11-15T04:10:01.797Z,7.09
2022-11-15T04:12:49.785Z,7.11
2022-11-15T04:15:35.436Z,7.15
2022-11-15T04:18:21.209Z,7.19
2022-11-15T04:21:25.240Z,7.22
2022-11-15T04:24:16.220Z,7.28
2022-11-15T04:27:01.447Z,7.30
2022-11-15T04:29:46.758Z,7.31
2022-11-15T04:32:32.063Z,7.32
2022-11-15T04:35:17.431Z,7.33
2022-11-15T04:38:04.487Z,7.36
2022-11-15T04:40:49.953Z,7.37
2022-11-15T04:43:36.065Z,7.39
2022-11-15T04:46:22.076Z,7.41
2022-11-15T04:49:07.256Z,7.43
2022-11-15T04:51:52.764Z,7.45
2022-11-15T04:54:38.005Z,7.48
2022-11-15T04:57:23.320Z,7.52
2022-11-15T05:00:11.762Z,7.57
2022-11-15T05:03:16.290Z,7.61
2022-11-15T05:06:02.043Z,7.62
2022-11-15T05:08:47.829Z,7.66
2022-11-15T05:11:33.248Z,7.69
2022-11-15T05:14:18.452Z,7.72
2022-11-15T05:17:03.724Z,7.74
2022-11-15T05:19:49.261Z,7.78
2022-11-15T05:22:34.485Z,7.81
2022-11-15T05:25:19.959Z,7.85
2022-11-15T05:28:05.186Z,7.87
2022-11-15T05:30:50.632Z,7.90
2022-11-15T05:33:38.477Z,7.95
2022-11-15T05:36:29.770Z,7.97
2022-11-15T05:39:15.286Z,7.98
2022-11-15T05:42:11.863Z,8.03
2022-11-15T05:44:58.836Z,8.07
2022-11-15T05:47:45.966Z,8.14
2022-11-15T05:50:31.754Z,8.22
2022-11-15T05:53:20.580Z,8.25
2022-11-15T05:56:07.616Z,8.32
2022-11-15T05:58:59.775Z,8.36
2022-11-15T06:01:45.961Z,8.40
2022-11-15T06:04:31.439Z,8.44
2022-11-15T06:07:16.812Z,8.47
2022-11-15T06:10:02.852Z,8.52
2022-11-15T06:12:47.996Z,8.56
2022-11-15T06:15:35.560Z,8.58
2022-11-15T06:18:21.028Z,8.63
2022-11-15T06:21:07.320Z,8.67
2022-11-15T06:23:52.936Z,8.72
2022-11-15T06:26:38.310Z,8.76
2022-11-15T06:29:23.875Z,8.80
2022-11-15T06:32:09.260Z,8.84
2022-11-15T06:34:54.851Z,8.89
2022-11-15T06:37:40.332Z,8.94
2022-11-15T06:40:25.786Z,8.95
2022-11-15T06:43:11.067Z,8.99
2022-11-15T06:45:56.206Z,9.03
2022-11-15T06:48:41.318Z,9.08
2022-11-15T06:51:27.079Z,9.12
2022-11-15T06:54:12.417Z,9.19
2022-11-15T06:56:57.662Z,9.22
2022-11-15T06:59:42.851Z,9.24
2022-11-15T07:02:28.070Z,9.28
2022-11-15T07:05:14.298Z,9.32
2022-11-15T07:08:00.774Z,9.35
2022-11-15T07:10:46.407Z,9.39
2022-11-15T07:13:36.539Z,9.42
2022-11-15T07:16:22.254Z,9.46
2022-11-15T07:19:09.689Z,9.47
2022-11-15T07:21:55.135Z,9.52
2022-11-15T07:24:40.799Z,9.56
2022-11-15T07:27:26.277Z,9.59
2022-11-15T07:30:15.402Z,9.63
2022-11-15T07:33:02.234Z,9.67
2022-11-15T07:35:50.921Z,9.71
2022-11-15T07:38:42.569Z,9.74
2022-11-15T07:41:30.201Z,9.79
2022-11-15T07:44:15.527Z,9.84
2022-11-15T07:47:00.727Z,9.87
2022-11-15T07:49:47.311Z,9.88
2022-11-15T07:52:32.964Z,9.91
2022-11-15T07:55:18.471Z,9.97
2022-11-15T07:58:08.656Z,10.04
2022-11-15T08:00:54.841Z,10.09
2022-11-15T08:03:40.435Z,10.15
2022-11-15T08:06:25.812Z,10.21
2022-11-15T08:09:11.134Z,10.23
2022-11-15T08:11:56.685Z,10.26
2022-11-15T08:14:41.768Z,10.27
2022-11-15T08:17:27.459Z,10.26
2022-11-15T08:20:12.489Z,10.26
2022-11-15T08:23:02.761Z,10.28
2022-11-15T08:25:48.439Z,10.30
2022-11-15T08:28:33.980Z,10.36
2022-11-15T08:31:19.895Z,10.43
2022-11-15T08:34:06.282Z,10.50
2022-11-15T08:36:51.582Z,10.56
2022-11-15T08:39:37.198Z,10.58
2022-11-15T08:42:22.624Z,10.62
2022-11-15T08:45:09.490Z,10.60
2022-11-15T08:47:54.914Z,10.58
2022-11-15T08:50:40.841Z,10.58
2022-11-15T08:53:26.428Z,10.58
2022-11-15T08:56:13.462Z,10.60
2022-11-15T08:58:58.701Z,10.63
2022-11-15T09:01:43.946Z,10.65
2022-11-15T09:04:29.611Z,10.75
2022-11-15T09:07:15.481Z,10.83
2022-11-15T09:10:01.185Z,10.88
2022-11-15T09:12:49.462Z,10.82
2022-11-15T09:15:35.428Z,10.85
2022-11-15T09:18:23.483Z,10.90
2022-11-15T09:21:09.385Z,10.84
2022-11-15T09:23:54.902Z,10.86
2022-11-15T09:26:40.833Z,10.85
2022-11-15T09:29:26.267Z,10.85
2022-11-15T09:32:11.607Z,10.86
2022-11-15T09:34:57.296Z,10.91
2022-11-15T09:37:43.148Z,10.98
2022-11-15T09:40:28.852Z,11.00
2022-11-15T09:43:20.231Z,11.01
2022-11-15T09:46:18.944Z,10.93
2022-11-15T09:49:05.458Z,10.84
2022-11-15T09:52:05.001Z,10.89
2022-11-15T09:57:21.821Z,10.98
2022-11-15T10:00:46.391Z,11.07
2022-11-15T10:03:26.322Z,11.21
2022-11-15T10:05:56.570Z,11.29
2022-11-15T10:09:02.150Z,11.42
2022-11-15T10:11:39.744Z,11.52
2022-11-15T10:14:26.676Z,11.61
2022-11-15T10:17:21.388Z,11.69
2022-11-15T10:20:05.903Z,11.82
2022-11-15T10:22:40.072Z,11.88
2022-11-15T10:25:10.077Z,11.89
2022-11-15T10:27:37.374Z,11.89
2022-11-15T10:30:11.687Z,11.95
2022-11-15T10:32:38.741Z,11.94
2022-11-15T10:35:25.086Z,11.99
2022-11-15T10:37:52.185Z,12.02
2022-11-15T10:40:24.314Z,12.04
2022-11-15T10:43:11.518Z,12.07
2022-11-15T10:45:39.561Z,12.10
2022-11-15T10:48:15.730Z,12.07
2022-11-15T10:50:44.937Z,12.07
2022-11-15T10:53:41.630Z,12.09
2022-11-15T10:56:13.000Z,12.09
2022-11-15T10:58:43.015Z,12.14
2022-11-15T11:01:14.269Z,12.14
2022-11-15T11:03:42.481Z,12.15
2022-11-15T11:06:18.208Z,12.15
2022-11-15T11:08:59.515Z,12.19
2022-11-15T11:11:45.132Z,12.21
2022-11-15T11:14:28.073Z,12.25
2022-11-15T11:17:12.816Z,12.36
2022-11-15T11:19:54.697Z,12.41
2022-11-15T11:22:43.347Z,12.45
2022-11-15T11:25:27.561Z,12.48
2022-11-15T11:28:26.729Z,12.50
2022-11-15T11:31:29.852Z,12.51
2022-11-15T11:34:18.810Z,12.53
2022-11-15T11:36:54.541Z,12.51
2022-11-15T11:39:40.214Z,12.48
2022-11-15T11:42:29.797Z,12.44
2022-11-15T11:45:12.182Z,12.42
2022-11-15T11:48:03.666Z,12.31
2022-11-15T11:50:30.897Z,12.23
2022-11-15T11:53:04.576Z,12.17
2022-11-15T11:55:40.897Z,12.14
2022-11-15T11:58:20.784Z,12.14
2022-11-15T12:00:53.268Z,12.17
2022-11-15T12:03:39.214Z,12.24
2022-11-15T12:06:43.734Z,12.29
2022-11-15T12:09:43.581Z,12.41
2022-11-15T12:12:19.686Z,12.42
2022-11-15T12:14:56.662Z,12.40
2022-11-15T12:17:33.062Z,12.43
2022-11-15T12:20:04.522Z,12.44
2022-11-15T12:22:39.320Z,12.43
2022-11-15T12:25:16.678Z,12.42
2022-11-15T12:27:49.634Z,12.50
2022-11-15T12:30:19.947Z,12.52
2022-11-15T12:32:59.339Z,12.48
2022-11-15T12:35:38.868Z,12.50
2022-11-15T12:38:09.852Z,12.64
2022-11-15T12:41:18.831Z,12.67
2022-11-15T12:43:47.831Z,12.82
2022-11-15T12:46:31.746Z,12.92
2022-11-15T12:49:05.552Z,12.82
2022-11-15T12:51:44.906Z,12.63
2022-11-15T12:54:23.753Z,12.68
2022-11-15T12:57:08.849Z,12.84
2022-11-15T12:59:56.361Z,12.67
2022-11-15T13:02:37.242Z,12.51
2022-11-15T13:05:36.111Z,12.51
2022-11-15T13:08:03.207Z,12.40
2022-11-15T13:10:33.494Z,12.36
2022-11-15T13:13:08.462Z,12.41
2022-11-15T13:15:47.322Z,12.36
2022-11-15T13:18:31.533Z,12.34
2022-11-15T13:21:02.332Z,12.35
2022-11-15T13:23:30.263Z,12.30
2022-11-15T13:26:19.173Z,12.08
2022-11-15T13:28:50.562Z,12.02
2022-11-15T13:31:30.664Z,11.95
2022-11-15T13:34:02.425Z,11.90
2022-11-15T13:36:35.375Z,11.86
2022-11-15T13:39:07.089Z,11.84
2022-11-15T13:41:48.242Z,11.81
2022-11-15T13:44:28.697Z,11.77
2022-11-15T13:47:21.088Z,11.75
2022-11-15T13:49:48.129Z,11.72
2022-11-15T13:52:18.000Z,11.68
2022-11-15T13:54:52.301Z,11.70
2022-11-15T13:57:41.537Z,11.67
2022-11-15T14:00:45.290Z,11.61
2022-11-15T14:03:25.725Z,11.57
2022-11-15T14:06:07.930Z,11.54
2022-11-15T14:08:36.152Z,11.48
2022-11-15T14:11:17.763Z,11.47
2022-11-15T14:14:08.409Z,11.39
2022-11-15T14:16:43.131Z,11.31
2022-11-15T14:19:34.753Z,11.21
2022-11-15T14:22:21.534Z,11.22
2022-11-15T14:25:19.826Z,11.17
2022-11-15T14:28:09.761Z,11.15
2022-11-15T14:30:37.128Z,11.14
2022-11-15T14:33:21.857Z,11.09
2022-11-15T14:35:48.906Z,11.04
2022-11-15T14:38:15.733Z,10.98
2022-11-15T14:40:44.772Z,10.93
2022-11-15T14:43:12.845Z,10.88
2022-11-15T14:45:40.224Z,10.81
2022-11-15T14:48:07.424Z,10.76
2022-11-15T14:50:35.674Z,10.70
2022-11-15T14:53:02.821Z,10.63
2022-11-15T14:55:33.595Z,10.60
2022-11-15T14:58:00.753Z,10.56
2022-11-15T15:00:32.299Z,10.52
2022-11-15T15:03:03.398Z,10.49
2022-11-15T15:05:35.651Z,10.49
2022-11-15T15:08:02.877Z,10.44
2022-11-15T15:10:42.185Z,10.40
2022-11-15T15:13:17.677Z,10.40
2022-11-15T15:15:45.154Z,10.41
2022-11-15T15:18:12.470Z,10.45
2022-11-15T15:20:41.708Z,10.51
2022-11-15T15:23:19.855Z,10.56
2022-11-15T15:25:49.744Z,10.57
2022-11-15T15:28:16.866Z,10.58
2022-11-15T15:30:44.146Z,10.58
2022-11-15T15:33:11.127Z,10.56
2022-11-15T15:35:37.925Z,10.52
2022-11-15T15:38:05.530Z,10.40
2022-11-15T15:40:34.334Z,10.33
2022-11-15T15:43:01.229Z,10.23
2022-11-15T15:45:29.156Z,10.17
2022-11-15T15:47:56.457Z,10.13
2022-11-15T15:50:23.375Z,10.10
2022-11-15T15:52:52.706Z,10.04
2022-11-15T15:55:20.097Z,10.00
2022-11-15T15:57:47.146Z,9.96
2022-11-15T16:00:15.256Z,9.90
2022-11-15T16:02:42.702Z,9.88
2022-11-15T16:05:10.966Z,9.84
2022-11-15T16:07:38.965Z,9.82
2022-11-15T16:10:25.861Z,9.82
2022-11-15T16:12:53.985Z,9.86
2022-11-15T16:15:21.983Z,9.94
2022-11-15T16:17:56.756Z,10.04
2022-11-15T16:20:33.999Z,10.11
2022-11-15T16:23:07.555Z,10.17
2022-11-15T16:25:43.126Z,10.22
2022-11-15T16:28:37.164Z,10.25
2022-11-15T16:31:10.541Z,10.27
2022-11-15T16:33:38.111Z,10.27
2022-11-15T16:36:07.146Z,10.31
2022-11-15T16:38:34.761Z,10.35
2022-11-15T16:41:02.453Z,10.35
2022-11-15T16:43:29.369Z,10.39
2022-11-15T16:45:56.409Z,10.44
2022-11-15T16:48:25.623Z,10.47
2022-11-15T16:50:57.591Z,10.52
2022-11-15T16:53:26.175Z,10.54
2022-11-15T16:55:53.160Z,10.54
2022-11-15T16:58:21.670Z,10.54
2022-11-15T17:00:53.743Z,10.53
2022-11-15T17:03:22.257Z,10.60
2022-11-15T17:05:49.724Z,10.62
2022-11-15T17:08:16.700Z,10.65
2022-11-15T17:10:44.299Z,10.68
2022-11-15T17:13:14.272Z,10.69
2022-11-15T17:15:41.876Z,10.71
2022-11-15T17:18:12.901Z,10.74
2022-11-15T17:20:41.591Z,10.75
2022-11-15T17:23:14.841Z,10.76
2022-11-15T17:25:42.174Z,10.76
2022-11-15T17:28:09.015Z,10.77
2022-11-15T17:30:36.209Z,10.78
2022-11-15T17:33:03.120Z,10.78
2022-11-15T17:35:29.975Z,10.81
2022-11-15T17:37:56.824Z,10.82
2022-11-15T17:40:23.640Z,10.84
2022-11-15T17:42:50.416Z,10.86
2022-11-15T17:45:17.595Z,10.88
2022-11-15T17:47:44.489Z,10.86
2022-11-15T17:50:11.712Z,10.89
2022-11-15T17:52:38.775Z,10.91
2022-11-15T17:55:05.956Z,10.91
2022-11-15T17:57:32.736Z,10.89
2022-11-15T17:59:59.805Z,10.89
2022-11-15T18:02:26.877Z,10.90
2022-11-15T18:04:53.687Z,10.91
2022-11-15T18:07:21.212Z,10.93
2022-11-15T18:09:48.273Z,10.94
2022-11-15T18:12:15.306Z,10.95
2022-11-15T18:14:42.541Z,10.97
2022-11-15T18:17:09.719Z,10.99
2022-11-15T18:19:37.707Z,11.00
2022-11-15T18:22:07.417Z,11.01
2022-11-15T18:24:36.786Z,11.04
2022-11-15T18:27:05.694Z,11.04
2022-11-15T18:29:34.756Z,11.10
2022-11-15T18:32:05.044Z,11.11
2022-11-15T18:34:34.051Z,11.10
2022-11-15T18:37:02.997Z,11.12
2022-11-15T18:39:30.291Z,11.15
2022-11-15T18:41:57.288Z,11.17
2022-11-15T18:44:24.343Z,11.17
2022-11-15T18:46:51.214Z,11.22
2022-11-15T18:49:19.755Z,11.22
2022-11-15T18:51:47.896Z,11.23
2022-11-15T18:54:16.376Z,11.22
2022-11-15T18:56:44.675Z,11.22
2022-11-15T18:59:12.053Z,11.22
2022-11-15T19:01:41.189Z,11.23
2022-11-15T19:04:11.118Z,11.27
2022-11-15T19:06:43.092Z,11.28
2022-11-15T19:09:11.691Z,11.29
2022-11-15T19:11:39.996Z,11.29
2022-11-15T19:14:09.647Z,11.33
2022-11-15T19:16:45.166Z,11.35
2022-11-15T19:19:15.247Z,11.36
2022-11-15T19:21:42.423Z,11.38
2022-11-15T19:24:10.613Z,11.37
2022-11-15T19:26:38.040Z,11.36
2022-11-15T19:29:07.146Z,11.39
2022-11-15T19:31:34.265Z,11.35
2022-11-15T19:34:04.571Z,11.33
2022-11-15T19:36:34.380Z,11.32
2022-11-15T19:39:08.540Z,11.28
2022-11-15T19:41:42.130Z,11.23
2022-11-15T19:44:10.580Z,11.22
2022-11-15T19:46:38.369Z,11.19
2022-11-15T19:49:08.003Z,11.16
2022-11-15T19:51:35.046Z,11.15
2022-11-15T19:54:06.916Z,11.07
2022-11-15T19:56:35.240Z,11.00
2022-11-15T19:59:03.069Z,10.93
2022-11-15T20:01:32.395Z,10.88
2022-11-15T20:04:00.462Z,10.82
2022-11-15T20:06:30.107Z,10.76
2022-11-15T20:08:57.966Z,10.69
2022-11-15T20:11:26.058Z,10.64
2022-11-15T20:13:58.000Z,10.59
2022-11-15T20:16:25.411Z,10.57
2022-11-15T20:18:53.576Z,10.55
2022-11-15T20:21:21.945Z,10.52
2022-11-15T20:23:51.135Z,10.51
2022-11-15T20:26:19.592Z,10.47
2022-11-15T20:28:48.251Z,10.44
2022-11-15T20:31:16.228Z,10.41
2022-11-15T20:33:43.061Z,10.40
2022-11-15T20:36:12.651Z,10.37
2022-11-15T20:38:39.947Z,10.35
2022-11-15T20:41:07.381Z,10.33
2022-11-15T20:43:34.657Z,10.33
2022-11-15T20:46:01.653Z,10.31
2022-11-15T20:48:28.536Z,10.30
2022-11-15T20:51:11.916Z,10.30
2022-11-15T20:53:38.738Z,10.29
2022-11-15T20:56:08.687Z,10.29
2022-11-15T20:58:37.044Z,10.30
2022-11-15T21:01:05.969Z,10.31
2022-11-15T21:03:33.788Z,10.32
2022-11-15T21:06:00.998Z,10.33
2022-11-15T21:08:27.993Z,10.34
2022-11-15T21:11:13.779Z,10.35
2022-11-15T21:13:40.608Z,10.33
2022-11-15T21:16:07.856Z,10.33
2022-11-15T21:18:35.805Z,10.34
2022-11-15T21:21:04.905Z,10.34
2022-11-15T21:23:31.970Z,10.32
2022-11-15T21:25:59.368Z,10.33
2022-11-15T21:28:26.492Z,10.32
2022-11-15T21:30:58.416Z,10.30
2022-11-15T21:33:27.590Z,10.29
2022-11-15T21:35:57.805Z,10.26
2022-11-15T21:38:24.869Z,10.27
2022-11-15T21:40:53.123Z,10.26
2022-11-15T21:43:21.153Z,10.25
2022-11-15T21:46:00.440Z,10.25
2022-11-15T21:48:28.632Z,10.26
2022-11-15T21:51:01.058Z,10.25
2022-11-15T21:53:29.546Z,10.31
2022-11-15T21:55:56.265Z,10.32
2022-11-15T21:58:23.989Z,10.29
2022-11-15T22:01:09.348Z,10.29
2022-11-15T22:03:36.468Z,10.30
2022-11-15T22:06:03.451Z,10.31
2022-11-15T22:08:31.855Z,10.29
2022-11-15T22:10:59.269Z,10.28
2022-11-15T22:13:26.956Z,10.27
2022-11-15T22:15:54.765Z,10.26
2022-11-15T22:18:26.593Z,10.25
2022-11-15T22:21:05.049Z,10.24
2022-11-15T22:23:33.868Z,10.23
2022-11-15T22:26:01.009Z,10.22
2022-11-15T22:28:28.397Z,10.22
2022-11-15T22:30:56.050Z,10.21
2022-11-15T22:33:26.073Z,10.20
2022-11-15T22:35:53.863Z,10.18
2022-11-15T22:38:20.716Z,10.20
2022-11-15T22:40:47.730Z,10.18
2022-11-15T22:43:16.065Z,10.17
2022-11-15T22:45:52.368Z,10.16
2022-11-15T22:48:21.630Z,10.16
2022-11-15T22:50:48.482Z,10.16
2022-11-15T22:53:15.458Z,10.17
2022-11-15T22:55:42.366Z,10.15
2022-11-15T22:58:09.878Z,10.16
2022-11-15T23:00:37.482Z,10.16
2022-11-15T23:03:04.502Z,10.15
2022-11-15T23:05:31.247Z,10.16
2022-11-15T23:07:58.076Z,10.16
2022-11-15T23:10:43.565Z,10.18
2022-11-15T23:13:16.436Z,10.18
2022-11-15T23:16:04.347Z,10.19
2022-11-15T23:18:39.127Z,10.19
2022-11-15T23:21:10.034Z,10.21
2022-11-15T23:23:37.582Z,10.19
2022-11-15T23:26:05.415Z,10.20
2022-11-15T23:28:34.687Z,10.20
2022-11-15T23:31:24.561Z,10.18
2022-11-15T23:33:58.103Z,10.18
2022-11-15T23:36:27.031Z,10.17
2022-11-15T23:38:53.870Z,10.16
2022-11-15T23:41:21.946Z,10.18
2022-11-15T23:43:48.805Z,10.17
2022-11-15T23:46:16.350Z,10.21
2022-11-15T23:48:43.472Z,10.21
2022-11-15T23:51:10.521Z,10.23
2022-11-15T23:53:37.581Z,10.22
2022-11-15T23:56:12.158Z,10.25
2022-11-15T23:58:39.609Z,10.24
